Daisinmaru No.11 — JK5352 — position and weather

sailwx.info

Track history (hours):
 
Tides and Currents Weather Stations Pressure Air Temp Water Temp Dewpoint Dewpoint Depression Visibility Wind Speed Wind Dir Waves Ship Positions

Daisinmaru No.11

Last reported at 2017-Apr-28 06:54 UTC. Time now 2017-Apr-29 19:35 UTC.
Position N 35°29' E 139°55'.

Length 52 m.

MMSI: 431000667.

Date/timePositionNaut miles runAvg speedWind from/ knotsBaromVisibWave heightAir tempDewpointWater temp
2017-Apr-28 06:54N 35°29' E 139°55'4 9.5
2017-Apr-28 06:30N 35°30' E 139°50'5 9.5
2017-Apr-28 06:00N 35°30' E 139°45'2 3.4
2017-Apr-28 05:30N 35°29' E 139°43'0 0.0
2017-Apr-28 05:00N 35°29' E 139°43'0 0.0
2017-Apr-28 04:30N 35°29' E 139°43'0 0.0
2017-Apr-28 04:00N 35°29' E 139°43'0 0.3
2017-Apr-28 03:30N 35°29' E 139°43'4 8.1
2017-Apr-28 03:00N 35°30' E 139°48'5 9.9
2017-Apr-28 02:30N 35°29' E 139°54'1 0.1
2017-Apr-27 07:18N 35°29' E 139°56'3 9.1
2017-Apr-27 06:57N 35°30' E 139°52'4 9.5
2017-Apr-27 06:29N 35°30' E 139°46'3 6.5
2017-Apr-27 06:00N 35°29' E 139°43'0 0.0
2017-Apr-27 05:30N 35°29' E 139°43'0 0.0
2017-Apr-27 05:00N 35°29' E 139°43'0 0.0
2017-Apr-27 04:30N 35°29' E 139°43'0 0.0
2017-Apr-27 04:00N 35°29' E 139°43'0 0.0
2017-Apr-27 03:30N 35°29' E 139°43'0 0.0
2017-Apr-27 03:00N 35°29' E 139°43'0 0.1
2017-Apr-27 02:30N 35°29' E 139°43'4 8.5
2017-Apr-27 02:00N 35°30' E 139°48'510.4
2017-Apr-27 01:30N 35°29' E 139°54'3 0.2
2017-Apr-26 07:21N 35°29' E 139°58'4 9.9
2017-Apr-26 06:58N 35°28' E 139°53'4 9.6
2017-Apr-26 06:30N 35°28' E 139°48'5 9.3
2017-Apr-26 06:01N 35°28' E 139°42'1 2.3
2017-Apr-26 05:31N 35°29' E 139°43'0 0.0
2017-Apr-26 05:01N 35°29' E 139°43'0 0.0
2017-Apr-26 04:31N 35°29' E 139°43'0 0.0
2017-Apr-26 04:01N 35°29' E 139°43'0 0.0
2017-Apr-26 03:31N 35°29' E 139°43'0 0.0
2017-Apr-26 03:01N 35°29' E 139°43'0 0.0
2017-Apr-26 02:31N 35°29' E 139°43'0 0.0
2017-Apr-26 02:01N 35°29' E 139°43'1 2.1
2017-Apr-26 01:31N 35°30' E 139°44'4 8.1
2017-Apr-26 01:00N 35°31' E 139°49'4 7.9
2017-Apr-26 00:31N 35°30' E 139°53'2 0.1
2017-Apr-25 06:56N 35°28' E 139°52'410.1
2017-Apr-25 06:30N 35°27' E 139°47'4 8.6
2017-Apr-25 06:00N 35°29' E 139°42'1 1.7
2017-Apr-25 05:30N 35°29' E 139°43'0 0.0
2017-Apr-25 05:00N 35°29' E 139°43'0 0.0
2017-Apr-25 04:30N 35°29' E 139°43'0 0.0
2017-Apr-25 04:00N 35°29' E 139°43'0 0.0
2017-Apr-25 03:30N 35°29' E 139°43'0 0.2
2017-Apr-25 03:00N 35°29' E 139°43'2 3.5
2017-Apr-25 02:30N 35°30' E 139°45'4 9.0
2017-Apr-25 02:00N 35°30' E 139°50'5 9.4
2017-Apr-25 01:30N 35°29' E 139°56'1 0.0
2017-Apr-24 07:31N 35°29' E 139°55'1 8.3
2017-Apr-24 07:26N 35°29' E 139°54'4 9.0
2017-Apr-24 07:00N 35°30' E 139°49'5 9.2
2017-Apr-24 06:30N 35°30' E 139°44'1 2.0
2017-Apr-24 06:01N 35°29' E 139°43'0 0.0
2017-Apr-24 05:30N 35°29' E 139°43'0 0.0
2017-Apr-24 05:00N 35°29' E 139°43'0 0.0
2017-Apr-24 04:31N 35°29' E 139°43'0 0.0
2017-Apr-24 04:00N 35°29' E 139°43'0 0.0
2017-Apr-24 03:30N 35°29' E 139°43'0 0.0
2017-Apr-24 03:00N 35°29' E 139°43'3 6.7
2017-Apr-24 02:30N 35°30' E 139°47'5 9.7
2017-Apr-24 02:00N 35°30' E 139°52'2 0.0
2017-Apr-22 01:56N 35°30' E 139°50'4 9.3
2017-Apr-22 01:30N 35°30' E 139°45'2 4.9
2017-Apr-22 01:00N 35°29' E 139°43'0 0.0
2017-Apr-22 00:30N 35°29' E 139°43'0 0.0
2017-Apr-22 00:00N 35°29' E 139°43'0 0.0
2017-Apr-21 23:30N 35°29' E 139°43'0 0.0
2017-Apr-21 23:00N 35°29' E 139°43'4 8.3
2017-Apr-21 22:30N 35°30' E 139°48'5 9.9
2017-Apr-21 22:00N 35°29' E 139°54'0 0.0
2017-Apr-21 07:33N 35°29' E 139°53'0 8.9
2017-Apr-21 07:30N 35°30' E 139°53'5 9.3
2017-Apr-21 07:01N 35°30' E 139°47'4 7.6
2017-Apr-21 06:31N 35°29' E 139°43'0 0.0
2017-Apr-21 06:01N 35°29' E 139°43'0 0.0
2017-Apr-21 05:31N 35°29' E 139°43'0 0.0
2017-Apr-21 05:01N 35°29' E 139°43'0 0.0
2017-Apr-21 04:30N 35°29' E 139°43'0 0.0
2017-Apr-21 04:01N 35°29' E 139°43'0 0.0
2017-Apr-21 03:31N 35°29' E 139°43'0 0.0
2017-Apr-21 03:01N 35°29' E 139°43'0 0.5
2017-Apr-21 02:31N 35°29' E 139°43'4 8.7
2017-Apr-21 02:01N 35°30' E 139°48'510.2
2017-Apr-21 01:31N 35°29' E 139°54'1 0.1
2017-Apr-20 03:09N 35°30' E 139°53'1 8.9
2017-Apr-20 03:00N 35°30' E 139°51'4 9.1
2017-Apr-20 02:30N 35°30' E 139°46'3 5.4
2017-Apr-20 02:00N 35°29' E 139°43'0 0.0
2017-Apr-20 01:30N 35°29' E 139°43'0 0.0
2017-Apr-20 01:00N 35°29' E 139°43'0 0.0
2017-Apr-20 00:30N 35°29' E 139°43'0 0.0
2017-Apr-20 00:00N 35°29' E 139°43'0 0.0
2017-Apr-19 23:30N 35°29' E 139°43'0 0.0
2017-Apr-19 23:00N 35°29' E 139°43'3 5.8
2017-Apr-19 22:30N 35°31' E 139°46'510.7
2017-Apr-19 22:00N 35°30' E 139°52'5 0.3
2017-Apr-19 08:10N 35°29' E 139°58'1 9.7
2017-Apr-19 08:00N 35°29' E 139°56'5 9.3
2017-Apr-19 07:31N 35°28' E 139°51'5 9.4
2017-Apr-19 07:00N 35°28' E 139°45'3 5.0
2017-Apr-19 06:30N 35°29' E 139°42'0 0.6
2017-Apr-19 06:01N 35°29' E 139°43'0 0.0
2017-Apr-19 05:31N 35°29' E 139°43'0 0.0
2017-Apr-19 05:01N 35°29' E 139°43'0 0.0
2017-Apr-19 04:31N 35°29' E 139°43'0 0.0
2017-Apr-19 04:01N 35°29' E 139°43'0 0.0
2017-Apr-19 03:31N 35°29' E 139°43'0 0.0
2017-Apr-19 03:00N 35°29' E 139°43'1 2.4
2017-Apr-19 02:31N 35°30' E 139°44'5 9.6
2017-Apr-19 02:01N 35°30' E 139°50'5 9.9
2017-Apr-19 01:31N 35°29' E 139°56'  
Track history (hours):
 
Tides and Currents Weather Stations Pressure Air Temp Water Temp Dewpoint Dewpoint Depression Visibility Wind Speed Wind Dir Waves Ship Positions

Daisinmaru No.11

Last reported at 2017-Apr-28 06:54 UTC. Time now 2017-Apr-29 19:35 UTC.
Position N 35°29' E 139°55'.

Length 52 m.

MMSI: 431000667.

Date/timePositionNaut miles runAvg speedWind from/ knotsBaromVisibWave heightAir tempDewpointWater temp
2017-Apr-28 06:54N 35°29' E 139°55'4 9.5
2017-Apr-28 06:30N 35°30' E 139°50'5 9.5
2017-Apr-28 06:00N 35°30' E 139°45'2 3.4
2017-Apr-28 05:30N 35°29' E 139°43'0 0.0
2017-Apr-28 05:00N 35°29' E 139°43'0 0.0
2017-Apr-28 04:30N 35°29' E 139°43'0 0.0
2017-Apr-28 04:00N 35°29' E 139°43'0 0.3
2017-Apr-28 03:30N 35°29' E 139°43'4 8.1
2017-Apr-28 03:00N 35°30' E 139°48'5 9.9
2017-Apr-28 02:30N 35°29' E 139°54'1 0.1
2017-Apr-27 07:18N 35°29' E 139°56'3 9.1
2017-Apr-27 06:57N 35°30' E 139°52'4 9.5
2017-Apr-27 06:29N 35°30' E 139°46'3 6.5
2017-Apr-27 06:00N 35°29' E 139°43'0 0.0
2017-Apr-27 05:30N 35°29' E 139°43'0 0.0
2017-Apr-27 05:00N 35°29' E 139°43'0 0.0
2017-Apr-27 04:30N 35°29' E 139°43'0 0.0
2017-Apr-27 04:00N 35°29' E 139°43'0 0.0
2017-Apr-27 03:30N 35°29' E 139°43'0 0.0
2017-Apr-27 03:00N 35°29' E 139°43'0 0.1
2017-Apr-27 02:30N 35°29' E 139°43'4 8.5
2017-Apr-27 02:00N 35°30' E 139°48'510.4
2017-Apr-27 01:30N 35°29' E 139°54'3 0.2
2017-Apr-26 07:21N 35°29' E 139°58'4 9.9
2017-Apr-26 06:58N 35°28' E 139°53'4 9.6
2017-Apr-26 06:30N 35°28' E 139°48'5 9.3
2017-Apr-26 06:01N 35°28' E 139°42'1 2.3
2017-Apr-26 05:31N 35°29' E 139°43'0 0.0
2017-Apr-26 05:01N 35°29' E 139°43'0 0.0
2017-Apr-26 04:31N 35°29' E 139°43'0 0.0
2017-Apr-26 04:01N 35°29' E 139°43'0 0.0
2017-Apr-26 03:31N 35°29' E 139°43'0 0.0
2017-Apr-26 03:01N 35°29' E 139°43'0 0.0
2017-Apr-26 02:31N 35°29' E 139°43'0 0.0
2017-Apr-26 02:01N 35°29' E 139°43'1 2.1
2017-Apr-26 01:31N 35°30' E 139°44'4 8.1
2017-Apr-26 01:00N 35°31' E 139°49'4 7.9
2017-Apr-26 00:31N 35°30' E 139°53'2 0.1
2017-Apr-25 06:56N 35°28' E 139°52'410.1
2017-Apr-25 06:30N 35°27' E 139°47'4 8.6
2017-Apr-25 06:00N 35°29' E 139°42'1 1.7
2017-Apr-25 05:30N 35°29' E 139°43'0 0.0
2017-Apr-25 05:00N 35°29' E 139°43'0 0.0
2017-Apr-25 04:30N 35°29' E 139°43'0 0.0
2017-Apr-25 04:00N 35°29' E 139°43'0 0.0
2017-Apr-25 03:30N 35°29' E 139°43'0 0.2
2017-Apr-25 03:00N 35°29' E 139°43'2 3.5
2017-Apr-25 02:30N 35°30' E 139°45'4 9.0
2017-Apr-25 02:00N 35°30' E 139°50'5 9.4
2017-Apr-25 01:30N 35°29' E 139°56'1 0.0
2017-Apr-24 07:31N 35°29' E 139°55'1 8.3
2017-Apr-24 07:26N 35°29' E 139°54'4 9.0
2017-Apr-24 07:00N 35°30' E 139°49'5 9.2
2017-Apr-24 06:30N 35°30' E 139°44'1 2.0
2017-Apr-24 06:01N 35°29' E 139°43'0 0.0
2017-Apr-24 05:30N 35°29' E 139°43'0 0.0
2017-Apr-24 05:00N 35°29' E 139°43'0 0.0
2017-Apr-24 04:31N 35°29' E 139°43'0 0.0
2017-Apr-24 04:00N 35°29' E 139°43'0 0.0
2017-Apr-24 03:30N 35°29' E 139°43'0 0.0
2017-Apr-24 03:00N 35°29' E 139°43'3 6.7
2017-Apr-24 02:30N 35°30' E 139°47'5 9.7
2017-Apr-24 02:00N 35°30' E 139°52'2 0.0
2017-Apr-22 01:56N 35°30' E 139°50'4 9.3
2017-Apr-22 01:30N 35°30' E 139°45'2 4.9
2017-Apr-22 01:00N 35°29' E 139°43'0 0.0
2017-Apr-22 00:30N 35°29' E 139°43'0 0.0
2017-Apr-22 00:00N 35°29' E 139°43'0 0.0
2017-Apr-21 23:30N 35°29' E 139°43'0 0.0
2017-Apr-21 23:00N 35°29' E 139°43'4 8.3
2017-Apr-21 22:30N 35°30' E 139°48'5 9.9
2017-Apr-21 22:00N 35°29' E 139°54'0 0.0
2017-Apr-21 07:33N 35°29' E 139°53'0 8.9
2017-Apr-21 07:30N 35°30' E 139°53'5 9.3
2017-Apr-21 07:01N 35°30' E 139°47'4 7.6
2017-Apr-21 06:31N 35°29' E 139°43'0 0.0
2017-Apr-21 06:01N 35°29' E 139°43'0 0.0
2017-Apr-21 05:31N 35°29' E 139°43'0 0.0
2017-Apr-21 05:01N 35°29' E 139°43'0 0.0
2017-Apr-21 04:30N 35°29' E 139°43'0 0.0
2017-Apr-21 04:01N 35°29' E 139°43'0 0.0
2017-Apr-21 03:31N 35°29' E 139°43'0 0.0
2017-Apr-21 03:01N 35°29' E 139°43'0 0.5
2017-Apr-21 02:31N 35°29' E 139°43'4 8.7
2017-Apr-21 02:01N 35°30' E 139°48'510.2
2017-Apr-21 01:31N 35°29' E 139°54'1 0.1
2017-Apr-20 03:09N 35°30' E 139°53'1 8.9
2017-Apr-20 03:00N 35°30' E 139°51'4 9.1
2017-Apr-20 02:30N 35°30' E 139°46'3 5.4
2017-Apr-20 02:00N 35°29' E 139°43'0 0.0
2017-Apr-20 01:30N 35°29' E 139°43'0 0.0
2017-Apr-20 01:00N 35°29' E 139°43'0 0.0
2017-Apr-20 00:30N 35°29' E 139°43'0 0.0
2017-Apr-20 00:00N 35°29' E 139°43'0 0.0
2017-Apr-19 23:30N 35°29' E 139°43'0 0.0
2017-Apr-19 23:00N 35°29' E 139°43'3 5.8
2017-Apr-19 22:30N 35°31' E 139°46'510.7
2017-Apr-19 22:00N 35°30' E 139°52'5 0.3
2017-Apr-19 08:10N 35°29' E 139°58'1 9.7
2017-Apr-19 08:00N 35°29' E 139°56'5 9.3
2017-Apr-19 07:31N 35°28' E 139°51'5 9.4
2017-Apr-19 07:00N 35°28' E 139°45'3 5.0
2017-Apr-19 06:30N 35°29' E 139°42'0 0.6
2017-Apr-19 06:01N 35°29' E 139°43'0 0.0
2017-Apr-19 05:31N 35°29' E 139°43'0 0.0
2017-Apr-19 05:01N 35°29' E 139°43'0 0.0
2017-Apr-19 04:31N 35°29' E 139°43'0 0.0
2017-Apr-19 04:01N 35°29' E 139°43'0 0.0
2017-Apr-19 03:31N 35°29' E 139°43'0 0.0
2017-Apr-19 03:00N 35°29' E 139°43'1 2.4
2017-Apr-19 02:31N 35°30' E 139°44'5 9.6
2017-Apr-19 02:01N 35°30' E 139°50'5 9.9
2017-Apr-19 01:31N 35°29' E 139°56'  

Dump ship's entire track history